NCAR-RAP Real-Time Weather Data

Output produced by METARs form (05 December 2019  15:09 UTC)
found at http://weather.rap.ucar.edu/surface/
 
KMKE 051452Z 19003KT 10SM SCT090 BKN170 BKN250 01/M03 A3001 RMK AO2 SLP170 T00061028 50010
KMKE 051352Z 00000KT 10SM BKN170 BKN250 M01/M04 A3001 RMK AO2 SLP171 T10111039
KMKE 051252Z 00000KT 10SM SCT170 BKN250 M01/M04 A2999 RMK AO2 SLP165 T10061039
KMKE 051152Z 27004KT 10SM SCT170 M01/M04 A2998 RMK AO2 SLP160 T10061039 10006 21006 53017
KMKE 051052Z 26005KT 10SM SCT150 M01/M04 A2996 RMK AO2 SLP152 T10061044
KMKE 050952Z 27004KT 10SM CLR M01/M04 A2994 RMK AO2 SLP147 T10061044
KMKE 050852Z 27004KT 10SM CLR 00/M04 A2993 RMK AO2 SLP141 T00001044 53009
KMKE 050752Z 26004KT 10SM CLR 00/M04 A2992 RMK AO2 SLP139 T00001044
KMKE 050652Z 26004KT 10SM CLR 01/M04 A2990 RMK AO2 SLP131 T00061044
KMKE 050552Z 28005KT 10SM FEW050 01/M05 A2990 RMK AO2 SLP131 T00061050 10028 20006 400560006 51016
KMKE 050452Z 27007KT 10SM FEW050 02/M05 A2989 RMK AO2 SLP128 T00171050
KMKE 050352Z 28007KT 10SM SCT050 02/M05 A2988 RMK AO2 SLP125 T00171050
KMKE 050252Z 29008KT 10SM FEW045 02/M05 A2985 RMK AO2 SLP115 T00221050 51021
KMKE 050152Z 29006KT 10SM FEW045 02/M05 A2983 RMK AO2 SLP110 T00171050
KMKE 050052Z 30009G18KT 10SM FEW045 03/M06 A2981 RMK AO2 SLP102 T00281056
KMKE 042352Z 30007KT 10SM FEW045 03/M04 A2979 RMK AO2 SLP094 T00281044 10056 20022 51031
KMKE 042252Z 32009G17KT 10SM BKN044 03/M04 A2976 RMK AO2 SLP085 T00331044
KMKE 042152Z 32014G23KT 10SM FEW038 BKN042 04/M04 A2972 RMK AO2 PK WND 31027/2056 SLP072 T00441044
KMKE 042052Z 30016G33KT 10SM FEW040 BKN045 05/M05 A2969 RMK AO2 PK WND 31037/2027 SLP061 T00501050 53021
KMKE 041952Z 30018G25KT 10SM BKN044 BKN049 04/M06 A2965 RMK AO2 PK WND 33030/1923 SLP048 T00441056
KMKE 041852Z 31016G28KT 10SM BKN038 05/M05 A2964 RMK AO2 PK WND 29029/1805 SLP044 T00501050